Latest Weather Observations for Thargomindah

IDQ60801

Issued at 7:02 pm EST Monday 27 June 2016 (issued every 30 minutes, with the page automatically refreshed every 10 minutes)

About weather observations | Map of weather stations | Latest weather observations for QLD | Other Formats
Station Details ID: 045025 Name: THARGOMINDAH AIRPORT Lat: -27.99 Lon: 143.81 Height: 130.89 m
Data from the previous 72 hours. | See also: Recent months at Thargomindah
Date/Time
EST
Temp
°C
App
Temp
°C
Dew
Point
°C
Rel
Hum
%
Delta-T
°C
Wind Press
QNH
hPa
Press
MSL
hPa
Rain since
9am
mm
Dir  Spd
km/h
Gust
km/h
Spd
kts
Gust
kts
27/07:00pm 9.6 6.9 5.4 75 1.9 SW 9 11 5 6 1024.7 - 0.0
27/06:30pm 10.0 7.2 5.2 72 2.2 SW 9 11 5 6 1024.5 - 0.0
27/06:00pm 10.7 7.5 5.0 68 2.6 SW 11 13 6 7 1024.0 1023.9 0.0
27/05:30pm 11.5 8.3 4.9 64 3.0 SSW 11 13 6 7 1023.4 - 0.0
27/05:00pm 12.2 8.1 4.4 59 3.6 SSW 15 17 8 9 1023.2 - 0.0
27/04:30pm 12.5 8.6 5.2 61 3.4 SSW 15 20 8 11 1022.8 - 0.0
27/04:00pm 12.9 8.9 5.1 59 3.6 SSW 15 22 8 12 1022.6 - 0.0
27/03:30pm 12.8 9.0 5.7 62 3.4 SSW 15 20 8 11 1022.3 - 0.0
27/03:00pm 12.6 8.7 5.3 61 3.4 SSW 15 28 8 15 1022.3 1022.2 0.0
27/02:30pm 12.4 8.1 5.3 62 3.3 SW 17 22 9 12 1022.2 - 0.0
27/02:00pm 11.6 8.3 4.8 63 3.1 SSW 11 19 6 10 1022.4 - 0.0
27/01:30pm 11.1 6.7 4.6 64 3.0 S 17 20 9 11 1022.6 - 0.0
27/01:00pm 10.8 5.8 3.8 62 3.1 S 19 26 10 14 1022.9 - 0.0
27/12:30pm 11.0 6.2 4.9 66 2.8 SSW 19 24 10 13 1023.0 - 0.0
27/12:00pm 10.9 6.7 5.7 70 2.4 SW 17 24 9 13 1023.4 1023.2 0.0
27/11:30am 10.7 6.5 5.9 72 2.2 SSW 17 24 9 13 1023.9 - 0.0
27/11:00am 9.7 5.0 5.1 73 2.1 SSW 19 24 10 13 1023.7 - 0.0
27/10:30am 9.2 4.3 5.0 75 1.9 SSW 20 26 11 14 1023.7 - 0.0
27/10:00am 9.1 4.2 4.9 75 1.9 SSW 20 28 11 15 1023.5 - 0.0
27/09:30am 8.7 3.8 4.9 77 1.7 SSW 20 26 11 14 1023.2 - 0.0
27/09:00am 8.5 4.9 5.1 79 1.5 SSW 13 17 7 9 1022.8 1022.7 3.8
27/08:30am 8.1 5.0 5.7 85 1.1 SSW 11 15 6 8 1022.4 - 3.8
27/08:00am 7.6 4.1 5.4 86 1.0 SW 13 17 7 9 1022.2 - 3.8
27/07:30am 7.5 4.1 5.8 89 0.8 SSW 13 17 7 9 1021.8 - 3.8
27/07:00am 8.0 4.2 5.6 85 1.1 SSW 15 19 8 10 1021.3 - 3.8
27/06:30am 7.9 4.6 6.4 90 0.7 SSW 13 17 7 9 1020.9 - 3.8
27/06:00am 7.8 4.9 6.4 91 0.6 SW 11 15 6 8 1020.5 1020.5 3.8
27/05:30am 7.6 5.4 6.4 92 0.6 SW 7 9 4 5 1019.9 - 3.8
27/05:00am 7.5 4.9 6.1 91 0.6 WSW 9 11 5 6 1019.6 - 3.8
27/04:30am 7.6 5.0 6.1 90 0.7 WSW 9 11 5 6 1019.6 - 3.8
27/04:00am 7.7 4.4 6.5 92 0.6 SW 13 17 7 9 1019.4 - 3.8
27/03:30am 7.6 4.7 6.4 92 0.6 WSW 11 15 6 8 1019.3 - 3.6
27/03:00am 7.5 4.9 6.3 92 0.5 W 9 9 5 5 1019.0 1018.8 3.6
27/02:30am 7.7 5.1 6.3 91 0.6 WSW 9 11 5 6 1019.0 - 3.6
27/02:00am 8.1 5.3 7.0 93 0.5 SW 11 13 6 7 1019.0 - 3.6
27/01:30am 8.2 5.8 7.1 93 0.5 WSW 9 15 5 8 1018.8 - 3.6
27/01:00am 8.2 6.4 7.0 92 0.6 WSW 6 9 3 5 1018.9 - 3.6
27/12:30am 8.1 6.1 6.9 92 0.6 SW 7 11 4 6 1018.9 - 3.6
27/12:00am 8.1 5.7 7.0 93 0.5 SSW 9 11 5 6 1018.7 1018.5 3.6
 
Date/Time
EST
Temp
°C
App
Temp
°C
Dew
Point
°C
Rel
Hum
%
Delta-T
°C
Wind Press
QNH
hPa
Press
MSL
hPa
Rain since
9am
mm
Dir  Spd
km/h
Gust
km/h
Spd
kts
Gust
kts
26/11:30pm 8.2 5.1 7.1 93 0.5 SSW 13 15 7 8 1018.7 - 3.6
26/11:00pm 8.3 5.5 7.1 92 0.6 SW 11 15 6 8 1018.8 - 3.6
26/10:30pm 8.4 6.4 7.2 92 0.6 WSW 7 9 4 5 1018.3 - 3.6
26/10:00pm 8.3 7.6 6.9 91 0.7 CALM 0 0 0 0 1018.1 - 3.4
26/09:30pm 8.4 7.7 6.9 90 0.7 CALM 0 0 0 0 1018.0 - 2.8
26/09:00pm 8.4 7.7 7.0 91 0.7 CALM 0 0 0 0 1017.7 1017.4 2.6
26/08:30pm 8.4 7.7 6.9 90 0.7 CALM 0 2 0 1 1017.8 - 2.4
26/08:00pm 8.3 6.2 6.8 90 0.7 ENE 7 11 4 6 1017.5 - 2.4
26/07:30pm 8.4 6.0 6.9 90 0.7 E 9 11 5 6 1017.3 - 2.2
26/07:00pm 8.5 6.1 7.1 91 0.7 ESE 9 11 5 6 1017.4 - 2.2
26/06:30pm 8.5 6.1 7.0 90 0.7 SSE 9 11 5 6 1017.2 - 1.6
26/06:00pm 8.6 5.7 6.7 88 0.9 SSE 11 15 6 8 1016.8 1016.6 1.2
26/05:30pm 9.7 7.6 6.8 82 1.4 S 7 13 4 7 1016.4 - 0.4
26/05:00pm 10.0 7.0 6.2 77 1.8 SE 11 17 6 9 1015.7 - 0.2
26/04:30pm 10.7 8.5 5.5 70 2.4 SSE 6 11 3 6 1016.3 - 0.0
26/04:00pm 11.0 8.1 4.5 64 2.9 SSE 9 11 5 6 1016.1 - 0.0
26/03:30pm 11.1 8.3 5.0 66 2.8 SSW 9 13 5 7 1016.1 - 0.0
26/03:00pm 11.1 8.2 4.6 64 3.0 S 9 11 5 6 1015.7 1015.6 0.0
26/02:30pm 11.0 9.7 4.2 63 3.1 CALM 0 6 0 3 1016.5 - 0.0
26/02:00pm 11.1 9.8 4.1 62 3.1 CALM 0 0 0 0 1016.7 - 0.0
26/01:30pm 11.2 8.7 3.5 59 3.4 NNW 6 9 3 5 1017.3 - 0.0
26/01:00pm 11.3 8.3 4.1 61 3.2 NNE 9 13 5 7 1017.2 - 0.0
26/12:30pm 11.0 7.5 3.3 59 3.4 NE 11 15 6 8 1017.4 - 0.0
26/12:00pm 11.0 7.2 4.0 62 3.1 NE 13 19 7 10 1018.0 1017.7 0.0
26/11:30am 10.8 6.2 3.8 62 3.1 NNE 17 22 9 12 1018.1 - 0.0
26/11:00am 10.2 5.7 4.1 66 2.7 NE 17 20 9 11 1018.3 - 0.0
26/10:30am 10.1 5.9 3.8 65 2.8 NE 15 20 8 11 1019.0 - 0.0
26/10:00am 10.0 5.8 3.7 65 2.8 NE 15 24 8 13 1018.9 - 0.0
26/09:30am 9.8 4.9 4.0 67 2.6 ENE 19 22 10 12 1018.8 - 0.0
26/09:00am 9.6 5.5 4.2 69 2.4 NE 15 20 8 11 1019.3 1019.3 0.0
26/08:30am 9.3 6.0 4.3 71 2.2 ENE 11 15 6 8 1019.9 - 0.0
26/08:00am 9.2 6.6 4.2 71 2.2 E 7 11 4 6 1020.3 - 0.0
26/07:30am 9.1 6.5 4.3 72 2.1 ENE 7 11 4 6 1020.3 - 0.0
26/07:00am 9.0 6.4 4.4 73 2.0 E 7 9 4 5 1020.1 - 0.0
26/06:30am 9.2 6.6 4.2 71 2.2 ENE 7 7 4 4 1020.5 - 0.0
26/06:00am 9.4 6.8 4.0 69 2.4 E 7 15 4 8 1020.1 1020.2 0.0
26/05:30am 9.5 5.7 3.9 68 2.5 ENE 13 17 7 9 1019.3 - 0.0
26/05:00am 9.3 5.5 4.1 70 2.3 E 13 15 7 8 1018.7 - 0.0
26/04:30am 9.4 6.1 4.4 71 2.2 E 11 15 6 8 1019.9 - 0.0
26/04:00am 9.4 5.7 4.6 72 2.1 ENE 13 15 7 8 1019.7 - 0.0
26/03:30am 9.4 5.8 4.8 73 2.1 E 13 17 7 9 1019.5 - 0.0
26/03:00am 9.4 5.8 5.0 74 2.0 ESE 13 15 7 8 1020.0 1019.8 0.0
26/02:30am 9.4 6.6 5.0 74 2.0 ESE 9 11 5 6 1020.4 - 0.0
26/02:00am 9.5 7.0 4.9 73 2.1 SE 7 11 4 6 1019.9 - 0.0
26/01:30am 9.5 7.0 4.9 73 2.1 ESE 7 11 4 6 1020.3 - 0.0
26/01:00am 9.6 6.8 5.0 73 2.1 ESE 9 11 5 6 1020.1 - 0.0
26/12:30am 9.7 6.4 4.7 71 2.3 SE 11 15 6 8 1020.0 - 0.0
26/12:00am 9.9 7.4 4.7 70 2.3 ESE 7 9 4 5 1021.0 1020.7 0.0
 
Date/Time
EST
Temp
°C
App
Temp
°C
Dew
Point
°C
Rel
Hum
%
Delta-T
°C
Wind Press
QNH
hPa
Press
MSL
hPa
Rain since
9am
mm
Dir  Spd
km/h
Gust
km/h
Spd
kts
Gust
kts
25/11:30pm 10.1 6.8 4.7 69 2.4 ESE 11 15 6 8 1021.0 - 0.0
25/11:00pm 9.9 7.0 4.7 70 2.3 ESE 9 11 5 6 1021.7 - 0.0
25/10:30pm 10.1 7.2 4.7 69 2.4 ESE 9 11 5 6 1021.7 - 0.0
25/10:00pm 10.3 7.4 4.7 68 2.5 SE 9 11 5 6 1021.5 - 0.0
25/09:30pm 10.5 7.3 5.1 69 2.5 SSE 11 15 6 8 1021.4 - 0.0
25/09:00pm 10.6 7.3 4.7 67 2.7 ESE 11 17 6 9 1020.4 1020.5 0.0
25/08:30pm 10.8 7.9 4.5 65 2.8 SE 9 11 5 6 1021.2 - 0.0
25/08:00pm 11.0 8.0 4.2 63 3.1 SE 9 13 5 7 1021.7 - 0.0
25/07:30pm 11.3 8.4 4.5 63 3.1 SE 9 13 5 7 1021.6 - 0.0
25/07:00pm 11.6 9.1 4.6 62 3.2 SE 7 9 4 5 1021.3 - 0.0
25/06:30pm 11.9 8.9 4.2 59 3.5 SSE 9 11 5 6 1021.7 - 0.0
25/06:00pm 12.2 9.1 3.7 56 3.8 SE 9 11 5 6 1021.7 1021.6 0.0
25/05:30pm 12.6 9.9 3.5 54 4.1 SE 7 9 4 5 1021.7 - 0.0
25/05:00pm 13.0 9.8 3.1 51 4.4 E 9 13 5 7 1021.7 - 0.0
25/04:30pm 13.6 9.4 1.9 45 5.1 E 13 17 7 9 1021.4 - 0.0
25/04:00pm 14.0 9.9 2.3 45 5.2 E 13 17 7 9 1021.5 - 0.0
25/03:30pm 13.7 9.5 1.4 43 5.3 SE 13 19 7 10 1021.2 - 0.0
25/03:00pm 13.8 9.7 2.1 45 5.1 ESE 13 24 7 13 1021.8 1021.6 0.0
25/02:30pm 13.8 9.6 1.8 44 5.2 ESE 13 22 7 12 1021.8 - 0.0
25/02:00pm 13.7 8.5 2.6 47 4.9 SSE 19 22 10 12 1022.3 - 0.0
25/01:30pm 13.5 8.5 1.5 44 5.2 SE 17 24 9 13 1022.4 - 0.0
25/01:00pm 13.3 8.6 3.4 51 4.5 ESE 17 24 9 13 1022.9 - 0.0
25/12:30pm 13.0 8.7 3.1 51 4.4 SE 15 22 8 12 1023.7 - 0.0
25/12:00pm 12.9 7.8 3.0 51 4.4 ESE 19 28 10 15 1024.3 1023.9 0.0
25/11:30am 12.3 6.9 1.3 47 4.7 ESE 19 26 10 14 1024.8 - 0.0
25/11:00am 12.1 7.2 1.7 49 4.5 ESE 17 26 9 14 1024.8 - 0.0
25/10:30am 11.7 6.5 2.7 54 3.9 ESE 19 26 10 14 1024.7 - 0.0
25/10:00am 10.9 6.1 2.7 57 3.6 ESE 17 24 9 13 1024.7 - 0.0
25/09:30am 10.1 6.0 4.3 67 2.6 ESE 15 19 8 10 1024.8 - 0.0
25/09:00am 8.8 5.4 4.2 73 2.0 ESE 11 17 6 9 1024.9 1024.7 0.2
25/08:30am 7.1 3.6 3.7 79 1.5 SE 11 15 6 8 1024.8 - 0.2
25/08:00am 6.0 2.9 3.5 84 1.1 SE 9 11 5 6 1024.5 - 0.2
25/07:30am 5.5 2.4 3.8 89 0.7 SE 9 11 5 6 1024.4 - 0.2
25/07:00am 5.6 2.2 3.9 89 0.7 SE 11 11 6 6 1024.1 - 0.2
25/06:30am 5.5 2.4 3.8 89 0.7 SSE 9 11 5 6 1024.0 - 0.2
25/06:00am 5.7 2.7 4.0 89 0.7 SSE 9 9 5 5 1023.9 1023.7 0.2
25/05:30am 5.7 3.1 4.0 89 0.7 S 7 7 4 4 1023.6 - 0.2
25/05:00am 6.0 3.4 4.0 87 0.9 S 7 9 4 5 1023.6 - 0.2
25/04:30am 6.5 3.9 4.2 85 1.0 S 7 7 4 4 1023.4 - 0.2
25/04:00am 6.9 4.3 4.2 83 1.2 S 7 9 4 5 1023.4 - 0.2
25/03:30am 7.3 4.4 4.4 82 1.3 S 9 13 5 7 1023.2 - 0.2
25/03:00am 7.4 4.1 4.4 81 1.3 SSE 11 13 6 7 1023.1 1022.9 0.2
25/02:30am 7.6 4.7 4.6 81 1.3 S 9 13 5 7 1023.3 - 0.2
25/02:00am 7.8 4.9 4.6 80 1.4 S 9 11 5 6 1023.3 - 0.2
25/01:30am 8.0 5.1 4.8 80 1.4 S 9 11 5 6 1023.3 - 0.2
25/01:00am 8.4 5.5 4.8 78 1.6 SSE 9 11 5 6 1023.1 - 0.2
25/12:30am 8.8 5.5 4.8 76 1.8 SSE 11 15 6 8 1023.1 - 0.2
25/12:00am 8.9 5.3 4.9 76 1.8 S 13 17 7 9 1023.0 1022.9 0.2
 
Date/Time
EST
Temp
°C
App
Temp
°C
Dew
Point
°C
Rel
Hum
%
Delta-T
°C
Wind Press
QNH
hPa
Press
MSL
hPa
Rain since
9am
mm
Dir  Spd
km/h
Gust
km/h
Spd
kts
Gust
kts
24/11:30pm 9.1 5.6 5.3 77 1.7 S 13 15 7 8 1023.1 - 0.2
24/11:00pm 8.9 5.9 5.8 81 1.4 S 11 13 6 7 1023.2 - 0.2
24/10:30pm 8.8 6.2 6.1 83 1.2 S 9 11 5 6 1023.0 - 0.2
24/10:00pm 8.8 6.3 6.6 86 1.0 SSW 9 11 5 6 1023.0 - 0.2
24/09:30pm 8.8 6.5 5.7 81 1.4 SW 7 7 4 4 1022.8 - 0.2
24/09:00pm 9.2 7.1 5.6 78 1.6 SSW 6 7 3 4 1022.4 1022.4 0.2
24/08:30pm 10.2 7.6 6.2 76 1.9 SSW 9 11 5 6 1022.2 - 0.2
24/08:00pm 10.6 8.2 5.2 69 2.5 SW 7 9 4 5 1022.2 - 0.2
24/07:30pm 11.4 8.6 5.3 66 2.8 SW 9 13 5 7 1021.8 - 0.2

Other Formats:

Comma delimited format used in spreadsheet applications
http://www.bom.gov.au/fwo/IDQ60801/IDQ60801.95492.axf

JavaScript Object Notation format (JSON) in row-major order
http://www.bom.gov.au/fwo/IDQ60801/IDQ60801.95492.json